• Join FlightAware (Why Join?)
  • Login
  • US Flag 
11:36AM EDT


 

Airport Tracker/Info


-or-


 

Live Flight TrackerFlight Track Log ✈ CPT8773 ✈ 27-Nov-2013 ✈ KCPR - KCOD

Flight Track Log - Related Links

Times and Time Zones

All times are in EST time to prevent confusion due to time zone crossing. See the CPT8773 flight status page for this flight to view local times or setup timezone preferences in your user account.

Time Position Orientation Groundspeed Altitude Reporting Facility
EST Latitude Longitude Course Direction KTS MPH feet Rate Location/Type
10:42AM 42.9689 -106.5047 347° North 110 127 7,800  Level Salt Lake Center
10:43AM 43.0008 -106.5081 356° North 106 122 8,400 600 Climbing Salt Lake Center
10:44AM 43.0281 -106.5097 357° North 104 120 9,000 480 Climbing Denver Center
10:45AM 43.0550 -106.5133 354° North 103 119 9,400 420 Climbing Denver Center
10:46AM 43.0426 -106.6696 307° West  Level Estimated
10:46AM 43.0872 -106.5206 351° North 104 120 9,900  Level Denver Center
10:47AM 43.0754 -106.6799 347° North  Level FlightAware Approximate
10:47AM 43.1158 -106.5286 348° North 107 123 10,300  Level Denver Center
10:48AM 43.1492 -106.5392 347° North 108 124 10,900 480 Climbing Denver Center
10:49AM 43.1769 -106.5486 346° North 110 127 11,400 480 Climbing Denver Center
10:50AM 43.2100 -106.5578 349° North 110 127 11,900 360 Climbing Denver Center
10:51AM 43.2392 -106.5650 350° North 110 127 12,200 60 Climbing Denver Center
10:52AM 43.2667 -106.5894 327° Northwest 114 131 12,100 -60 Descending Denver Center
10:53AM 43.2750 -106.6319 285° West 118 136 12,100  Level Denver Center
10:54AM 43.3003 -106.6761 308° West 126 145 12,100 -60 Level Salt Lake Center
10:55AM 43.3211 -106.7142 307° West 130 150 12,000 -60 Descending Salt Lake Center
10:56AM 43.3417 -106.7539 305° West 132 152 12,000  Level Salt Lake Center
10:57AM 43.3661 -106.7992 307° West 132 152 12,100  Climbing Salt Lake Center
10:58AM 43.3881 -106.8378 308° West 133 153 12,100 -60 Level Salt Lake Center
10:59AM 43.4114 -106.8831 305° West 132 152 12,000 -60 Descending Salt Lake Center
11:00AM 43.4328 -106.9214 308° West 132 152 12,000  Level Salt Lake Center
11:01AM 43.4531 -106.9572 308° West 126 145 12,100  Climbing Salt Lake Center
11:02AM 43.4747 -106.9939 309° West 124 143 12,100  Level Salt Lake Center
11:03AM 43.4978 -107.0414 304° West 123 142 12,100  Level Salt Lake Center
11:04AM 43.5186 -107.0786 308° West 124 143 12,100  Level Salt Lake Center
11:05AM 43.5378 -107.1142 307° West 118 136 12,100  Level Salt Lake Center
11:06AM 43.5561 -107.1514 304° West 117 135 12,100  Level Salt Lake Center
11:07AM 43.5764 -107.1878 308° West 119 137 12,100  Level Salt Lake Center
11:09AM 43.5969 -107.2242 308° West 120 138 12,100  Level Salt Lake Center
11:10AM 43.6147 -107.2619 303° West 118 136 12,100  Level Salt Lake Center
11:11AM 43.6386 -107.3064 307° West 120 138 12,100  Level Salt Lake Center
11:12AM 43.6594 -107.3464 306° West 126 145 12,100  Level Salt Lake Center
11:13AM 43.6808 -107.3825 309° West 124 143 12,100  Level Salt Lake Center
11:14AM 43.7006 -107.4222 304° West 124 143 12,100  Level Salt Lake Center
11:15AM 43.7217 -107.4617 307° West 126 145 12,100  Level Salt Lake Center
11:16AM 43.7431 -107.4992 308° West 126 145 12,100  Level Salt Lake Center
11:17AM 43.7669 -107.5481 304° West 126 145 12,100  Level Salt Lake Center
11:18AM 43.7878 -107.5875 306° West 127 146 12,100  Level Salt Lake Center
11:19AM 43.8089 -107.6275 306° West 128 147 12,100  Level Salt Lake Center
11:20AM 43.8300 -107.6675 306° West 128 147 12,100  Level Salt Lake Center
11:21AM 43.8506 -107.7069 306° West 128 147 12,100  Level Salt Lake Center
11:22AM 43.8711 -107.7467 306° West 127 146 12,100  Level Salt Lake Center
11:23AM 43.8969 -107.7925 308° West 127 146 12,100  Level Salt Lake Center
11:24AM 43.9183 -107.8336 306° West 128 147 12,100  Level Salt Lake Center
11:25AM 43.9386 -107.8747 304° West 129 148 12,100  Level Salt Lake Center
11:26AM 43.9589 -107.9147 305° West 128 147 12,100  Level Salt Lake Center
11:27AM 43.9803 -107.9544 307° West 128 147 12,100  Level Salt Lake Center
11:28AM 44.0006 -107.9947 305° West 128 147 12,100 -60 Level Salt Lake Center
11:29AM 44.0208 -108.0344 305° West 128 147 12,000 -60 Descending Salt Lake Center
11:30AM 44.0444 -108.0817 305° West 126 145 12,000  Level Salt Lake Center
11:31AM 44.0650 -108.1228 305° West 126 145 12,000  Level Salt Lake Center
11:32AM 44.0867 -108.1611 308° West 127 146 12,000 -180 Level Salt Lake Center
11:33AM 44.1075 -108.2022 305° West 128 147 11,700 -300 Descending Salt Lake Center
11:34AM 44.1281 -108.2472 302° West 131 151 11,500 -300 Descending Salt Lake Center
11:35AM 44.1478 -108.2933 301° West 135 155 11,200 -300 Descending Salt Lake Center
11:36AM 44.1744 -108.3469 305° West 138 159 11,000 -300 Descending Salt Lake Center
11:37AM 44.1981 -108.3908 307° West 140 161 10,700 -360 Descending Salt Lake Center
11:38AM 44.2211 -108.4353 306° West 141 162 10,300 -300 Descending Salt Lake Center
11:40AM 44.2444 -108.4806 306° West 142 163 10,100 -240 Descending Salt Lake Center
11:41AM 44.2672 -108.5239 306° West 141 162 9,900 -300 Descending Salt Lake Center
11:42AM 44.2894 -108.5703 304° West 142 163 9,500 -360 Descending Salt Lake Center
11:43AM 44.3167 -108.6239 305° West 142 163 9,200 -300 Descending Salt Lake Center